sensor_id;sensor_type;location;lat;lon;timestamp;P1;durP1;ratioP1;P2;durP2;ratioP2
11396;SDS011;5754;43.726;7.416;2024-03-06T00:01:09;110.53;;;106.03;;
11396;SDS011;5754;43.726;7.416;2024-03-06T00:03:46;111.97;;;107.27;;
11396;SDS011;5754;43.726;7.416;2024-03-06T00:06:22;116.97;;;112.20;;
11396;SDS011;5754;43.726;7.416;2024-03-06T00:08:58;113.37;;;108.57;;
11396;SDS011;5754;43.726;7.416;2024-03-06T00:11:35;112.23;;;107.63;;
11396;SDS011;5754;43.726;7.416;2024-03-06T00:14:10;112.63;;;108.03;;
11396;SDS011;5754;43.726;7.416;2024-03-06T00:16:47;115.17;;;110.47;;
11396;SDS011;5754;43.726;7.416;2024-03-06T00:19:25;110.90;;;106.40;;
11396;SDS011;5754;43.726;7.416;2024-03-06T00:22:00;113.10;;;108.57;;
11396;SDS011;5754;43.726;7.416;2024-03-06T00:24:39;109.60;;;105.00;;
11396;SDS011;5754;43.726;7.416;2024-03-06T00:27:15;109.77;;;105.33;;
11396;SDS011;5754;43.726;7.416;2024-03-06T00:29:52;107.87;;;103.47;;
11396;SDS011;5754;43.726;7.416;2024-03-06T00:32:29;109.40;;;105.00;;
11396;SDS011;5754;43.726;7.416;2024-03-06T00:35:07;109.40;;;105.00;;
11396;SDS011;5754;43.726;7.416;2024-03-06T00:37:41;109.47;;;105.07;;
11396;SDS011;5754;43.726;7.416;2024-03-06T00:40:16;108.50;;;104.00;;
11396;SDS011;5754;43.726;7.416;2024-03-06T00:42:53;109.13;;;104.73;;
11396;SDS011;5754;43.726;7.416;2024-03-06T00:45:28;107.87;;;103.53;;
11396;SDS011;5754;43.726;7.416;2024-03-06T00:48:04;110.87;;;106.37;;
11396;SDS011;5754;43.726;7.416;2024-03-06T00:50:40;110.30;;;105.80;;
11396;SDS011;5754;43.726;7.416;2024-03-06T00:53:16;110.13;;;105.63;;
11396;SDS011;5754;43.726;7.416;2024-03-06T00:55:52;112.17;;;107.67;;
11396;SDS011;5754;43.726;7.416;2024-03-06T00:58:28;108.33;;;103.73;;
11396;SDS011;5754;43.726;7.416;2024-03-06T01:01:04;111.43;;;106.93;;
11396;SDS011;5754;43.726;7.416;2024-03-06T01:03:39;111.20;;;106.73;;
11396;SDS011;5754;43.726;7.416;2024-03-06T01:06:15;109.43;;;105.03;;
11396;SDS011;5754;43.726;7.416;2024-03-06T01:08:50;109.67;;;105.27;;
11396;SDS011;5754;43.726;7.416;2024-03-06T01:11:28;108.50;;;104.10;;
11396;SDS011;5754;43.726;7.416;2024-03-06T01:14:02;107.57;;;103.17;;
11396;SDS011;5754;43.726;7.416;2024-03-06T01:16:40;107.83;;;103.53;;
11396;SDS011;5754;43.726;7.416;2024-03-06T01:21:59;110.70;;;106.20;;
11396;SDS011;5754;43.726;7.416;2024-03-06T01:24:36;109.10;;;104.70;;
11396;SDS011;5754;43.726;7.416;2024-03-06T01:27:15;108.13;;;103.73;;
11396;SDS011;5754;43.726;7.416;2024-03-06T01:29:51;111.60;;;107.10;;
11396;SDS011;5754;43.726;7.416;2024-03-06T01:32:26;109.63;;;105.17;;
11396;SDS011;5754;43.726;7.416;2024-03-06T01:35:03;109.70;;;105.30;;
11396;SDS011;5754;43.726;7.416;2024-03-06T01:37:38;112.17;;;107.67;;
11396;SDS011;5754;43.726;7.416;2024-03-06T01:40:13;109.13;;;104.73;;
11396;SDS011;5754;43.726;7.416;2024-03-06T01:42:48;110.40;;;105.90;;
11396;SDS011;5754;43.726;7.416;2024-03-06T01:45:23;113.27;;;108.73;;
11396;SDS011;5754;43.726;7.416;2024-03-06T01:47:58;110.40;;;105.83;;
11396;SDS011;5754;43.726;7.416;2024-03-06T01:50:33;112.27;;;107.77;;
11396;SDS011;5754;43.726;7.416;2024-03-06T01:53:08;111.60;;;107.10;;
11396;SDS011;5754;43.726;7.416;2024-03-06T01:55:43;110.00;;;105.57;;
11396;SDS011;5754;43.726;7.416;2024-03-06T01:58:18;108.10;;;103.70;;
11396;SDS011;5754;43.726;7.416;2024-03-06T02:00:54;111.20;;;106.70;;
11396;SDS011;5754;43.726;7.416;2024-03-06T02:03:32;110.60;;;106.10;;
11396;SDS011;5754;43.726;7.416;2024-03-06T02:06:09;112.50;;;108.00;;
11396;SDS011;5754;43.726;7.416;2024-03-06T02:08:48;109.57;;;105.17;;
11396;SDS011;5754;43.726;7.416;2024-03-06T02:11:26;113.47;;;108.77;;
11396;SDS011;5754;43.726;7.416;2024-03-06T02:14:02;111.73;;;107.23;;
11396;SDS011;5754;43.726;7.416;2024-03-06T02:16:40;111.80;;;107.30;;
11396;SDS011;5754;43.726;7.416;2024-03-06T02:19:16;110.13;;;105.67;;
11396;SDS011;5754;43.726;7.416;2024-03-06T02:21:50;107.17;;;102.77;;
11396;SDS011;5754;43.726;7.416;2024-03-06T02:24:25;113.20;;;108.60;;
11396;SDS011;5754;43.726;7.416;2024-03-06T02:27:00;112.57;;;108.07;;
11396;SDS011;5754;43.726;7.416;2024-03-06T02:29:35;112.60;;;108.03;;
11396;SDS011;5754;43.726;7.416;2024-03-06T02:32:12;115.73;;;111.03;;
11396;SDS011;5754;43.726;7.416;2024-03-06T02:34:55;112.10;;;107.50;;
11396;SDS011;5754;43.726;7.416;2024-03-06T02:37:30;112.50;;;107.80;;
11396;SDS011;5754;43.726;7.416;2024-03-06T02:40:07;114.43;;;109.83;;
11396;SDS011;5754;43.726;7.416;2024-03-06T02:42:45;112.90;;;108.30;;
11396;SDS011;5754;43.726;7.416;2024-03-06T02:45:19;113.53;;;108.93;;
11396;SDS011;5754;43.726;7.416;2024-03-06T02:47:54;116.33;;;111.63;;
11396;SDS011;5754;43.726;7.416;2024-03-06T02:50:29;114.67;;;110.07;;
11396;SDS011;5754;43.726;7.416;2024-03-06T02:53:05;113.27;;;108.67;;
11396;SDS011;5754;43.726;7.416;2024-03-06T02:55:41;112.63;;;108.13;;
11396;SDS011;5754;43.726;7.416;2024-03-06T02:58:17;113.30;;;108.70;;
11396;SDS011;5754;43.726;7.416;2024-03-06T03:00:53;110.20;;;105.80;;
11396;SDS011;5754;43.726;7.416;2024-03-06T03:03:27;114.07;;;109.47;;
11396;SDS011;5754;43.726;7.416;2024-03-06T03:06:05;106.50;;;102.20;;
11396;SDS011;5754;43.726;7.416;2024-03-06T03:08:40;104.87;;;100.63;;
11396;SDS011;5754;43.726;7.416;2024-03-06T03:11:16;107.57;;;103.17;;
11396;SDS011;5754;43.726;7.416;2024-03-06T03:13:52;107.87;;;103.57;;
11396;SDS011;5754;43.726;7.416;2024-03-06T03:16:27;106.57;;;102.27;;
11396;SDS011;5754;43.726;7.416;2024-03-06T03:19:03;109.20;;;104.80;;
11396;SDS011;5754;43.726;7.416;2024-03-06T03:21:41;106.83;;;102.53;;
11396;SDS011;5754;43.726;7.416;2024-03-06T03:24:17;105.43;;;101.13;;
11396;SDS011;5754;43.726;7.416;2024-03-06T03:26:55;107.80;;;103.50;;
11396;SDS011;5754;43.726;7.416;2024-03-06T03:29:30;104.37;;;100.17;;
11396;SDS011;5754;43.726;7.416;2024-03-06T03:32:05;103.90;;;99.70;;
11396;SDS011;5754;43.726;7.416;2024-03-06T03:34:43;104.77;;;100.17;;
11396;SDS011;5754;43.726;7.416;2024-03-06T03:37:21;108.03;;;103.70;;
11396;SDS011;5754;43.726;7.416;2024-03-06T03:39:55;105.47;;;101.17;;
11396;SDS011;5754;43.726;7.416;2024-03-06T03:42:30;103.60;;;99.40;;
11396;SDS011;5754;43.726;7.416;2024-03-06T03:45:05;105.60;;;101.30;;
11396;SDS011;5754;43.726;7.416;2024-03-06T03:47:40;106.77;;;102.43;;
11396;SDS011;5754;43.726;7.416;2024-03-06T03:50:16;105.77;;;101.47;;
11396;SDS011;5754;43.726;7.416;2024-03-06T03:52:51;104.87;;;100.57;;
11396;SDS011;5754;43.726;7.416;2024-03-06T03:55:26;107.87;;;103.50;;
11396;SDS011;5754;43.726;7.416;2024-03-06T03:58:04;108.20;;;103.80;;
11396;SDS011;5754;43.726;7.416;2024-03-06T04:00:42;107.30;;;103.00;;
11396;SDS011;5754;43.726;7.416;2024-03-06T04:03:19;106.27;;;101.87;;
11396;SDS011;5754;43.726;7.416;2024-03-06T04:05:58;107.27;;;102.87;;
11396;SDS011;5754;43.726;7.416;2024-03-06T04:08:33;108.47;;;103.97;;
11396;SDS011;5754;43.726;7.416;2024-03-06T04:11:07;106.87;;;102.53;;
11396;SDS011;5754;43.726;7.416;2024-03-06T04:13:41;106.70;;;102.30;;
11396;SDS011;5754;43.726;7.416;2024-03-06T04:16:19;105.67;;;101.37;;
11396;SDS011;5754;43.726;7.416;2024-03-06T04:18:53;109.50;;;104.80;;
11396;SDS011;5754;43.726;7.416;2024-03-06T04:21:28;107.87;;;103.13;;
11396;SDS011;5754;43.726;7.416;2024-03-06T04:24:03;107.07;;;102.67;;
11396;SDS011;5754;43.726;7.416;2024-03-06T04:26:39;106.17;;;101.77;;
11396;SDS011;5754;43.726;7.416;2024-03-06T04:29:13;106.67;;;102.07;;
11396;SDS011;5754;43.726;7.416;2024-03-06T04:31:47;105.90;;;101.50;;
11396;SDS011;5754;43.726;7.416;2024-03-06T04:34:24;105.37;;;100.97;;
11396;SDS011;5754;43.726;7.416;2024-03-06T04:37:04;105.10;;;100.80;;
11396;SDS011;5754;43.726;7.416;2024-03-06T04:39:39;116.03;;;110.93;;
11396;SDS011;5754;43.726;7.416;2024-03-06T04:42:16;110.90;;;106.20;;
11396;SDS011;5754;43.726;7.416;2024-03-06T04:44:51;105.77;;;101.33;;
11396;SDS011;5754;43.726;7.416;2024-03-06T04:47:26;108.00;;;103.43;;
11396;SDS011;5754;43.726;7.416;2024-03-06T04:50:02;106.80;;;102.27;;
11396;SDS011;5754;43.726;7.416;2024-03-06T04:52:37;105.50;;;101.07;;
11396;SDS011;5754;43.726;7.416;2024-03-06T04:55:12;104.83;;;100.53;;
11396;SDS011;5754;43.726;7.416;2024-03-06T04:57:48;106.30;;;101.90;;
11396;SDS011;5754;43.726;7.416;2024-03-06T05:00:23;106.13;;;101.73;;
11396;SDS011;5754;43.726;7.416;2024-03-06T05:02:58;105.07;;;100.57;;
11396;SDS011;5754;43.726;7.416;2024-03-06T05:05:51;107.53;;;102.93;;
11396;SDS011;5754;43.726;7.416;2024-03-06T05:08:45;106.57;;;102.17;;
11396;SDS011;5754;43.726;7.416;2024-03-06T05:11:39;104.17;;;99.87;;
11396;SDS011;5754;43.726;7.416;2024-03-06T05:14:31;106.00;;;101.57;;
11396;SDS011;5754;43.726;7.416;2024-03-06T05:17:24;109.83;;;105.17;;
11396;SDS011;5754;43.726;7.416;2024-03-06T05:20:20;105.17;;;100.73;;
11396;SDS011;5754;43.726;7.416;2024-03-06T05:23:13;109.50;;;105.00;;
11396;SDS011;5754;43.726;7.416;2024-03-06T05:26:07;108.50;;;104.10;;
11396;SDS011;5754;43.726;7.416;2024-03-06T05:29:00;106.53;;;102.13;;
11396;SDS011;5754;43.726;7.416;2024-03-06T05:31:53;107.63;;;103.23;;
11396;SDS011;5754;43.726;7.416;2024-03-06T05:34:50;105.57;;;101.27;;
11396;SDS011;5754;43.726;7.416;2024-03-06T05:37:42;109.23;;;104.83;;
11396;SDS011;5754;43.726;7.416;2024-03-06T05:40:35;107.90;;;103.50;;
11396;SDS011;5754;43.726;7.416;2024-03-06T05:43:31;108.57;;;104.17;;
11396;SDS011;5754;43.726;7.416;2024-03-06T05:46:24;108.17;;;103.57;;
11396;SDS011;5754;43.726;7.416;2024-03-06T05:49:17;108.50;;;104.10;;
11396;SDS011;5754;43.726;7.416;2024-03-06T05:52:11;111.50;;;107.00;;
11396;SDS011;5754;43.726;7.416;2024-03-06T05:55:04;109.57;;;105.17;;
11396;SDS011;5754;43.726;7.416;2024-03-06T05:57:57;110.63;;;106.13;;
11396;SDS011;5754;43.726;7.416;2024-03-06T06:00:43;109.13;;;104.63;;
11396;SDS011;5754;43.726;7.416;2024-03-06T06:03:19;108.63;;;104.13;;
11396;SDS011;5754;43.726;7.416;2024-03-06T06:05:54;107.33;;;102.93;;
11396;SDS011;5754;43.726;7.416;2024-03-06T06:08:29;107.07;;;102.77;;
11396;SDS011;5754;43.726;7.416;2024-03-06T06:11:03;106.00;;;101.60;;
11396;SDS011;5754;43.726;7.416;2024-03-06T06:13:40;106.77;;;102.47;;
11396;SDS011;5754;43.726;7.416;2024-03-06T06:16:15;106.40;;;102.00;;
11396;SDS011;5754;43.726;7.416;2024-03-06T06:18:53;106.50;;;102.00;;
11396;SDS011;5754;43.726;7.416;2024-03-06T06:21:29;108.40;;;104.00;;
11396;SDS011;5754;43.726;7.416;2024-03-06T06:24:07;110.50;;;106.00;;
11396;SDS011;5754;43.726;7.416;2024-03-06T06:26:46;106.13;;;101.73;;
11396;SDS011;5754;43.726;7.416;2024-03-06T06:29:21;106.00;;;101.63;;
11396;SDS011;5754;43.726;7.416;2024-03-06T06:31:58;105.63;;;101.33;;
11396;SDS011;5754;43.726;7.416;2024-03-06T06:34:36;107.20;;;102.90;;
11396;SDS011;5754;43.726;7.416;2024-03-06T06:37:10;105.20;;;100.90;;
11396;SDS011;5754;43.726;7.416;2024-03-06T06:39:45;106.97;;;102.50;;
11396;SDS011;5754;43.726;7.416;2024-03-06T06:42:20;107.57;;;103.07;;
11396;SDS011;5754;43.726;7.416;2024-03-06T06:44:58;108.20;;;103.80;;
11396;SDS011;5754;43.726;7.416;2024-03-06T06:47:34;108.43;;;103.93;;
11396;SDS011;5754;43.726;7.416;2024-03-06T06:50:14;106.93;;;102.63;;
11396;SDS011;5754;43.726;7.416;2024-03-06T06:52:49;108.57;;;104.17;;
11396;SDS011;5754;43.726;7.416;2024-03-06T06:55:23;106.93;;;102.40;;
11396;SDS011;5754;43.726;7.416;2024-03-06T06:57:57;106.73;;;102.23;;
11396;SDS011;5754;43.726;7.416;2024-03-06T07:00:34;108.17;;;103.70;;
11396;SDS011;5754;43.726;7.416;2024-03-06T07:03:11;109.13;;;104.47;;
11396;SDS011;5754;43.726;7.416;2024-03-06T07:05:46;106.13;;;101.73;;
11396;SDS011;5754;43.726;7.416;2024-03-06T07:08:23;109.13;;;104.63;;
11396;SDS011;5754;43.726;7.416;2024-03-06T07:11:00;112.40;;;107.70;;
11396;SDS011;5754;43.726;7.416;2024-03-06T07:13:36;104.63;;;100.33;;
11396;SDS011;5754;43.726;7.416;2024-03-06T07:16:11;105.87;;;101.27;;
11396;SDS011;5754;43.726;7.416;2024-03-06T07:18:49;106.03;;;101.73;;
11396;SDS011;5754;43.726;7.416;2024-03-06T07:21:23;107.77;;;103.17;;
11396;SDS011;5754;43.726;7.416;2024-03-06T07:23:57;105.87;;;101.47;;
11396;SDS011;5754;43.726;7.416;2024-03-06T07:26:32;107.53;;;103.13;;
11396;SDS011;5754;43.726;7.416;2024-03-06T07:29:08;109.20;;;104.47;;
11396;SDS011;5754;43.726;7.416;2024-03-06T07:31:49;107.63;;;103.07;;
11396;SDS011;5754;43.726;7.416;2024-03-06T07:34:23;109.07;;;104.57;;
11396;SDS011;5754;43.726;7.416;2024-03-06T07:36:59;106.37;;;101.97;;
11396;SDS011;5754;43.726;7.416;2024-03-06T07:39:35;108.80;;;104.40;;
11396;SDS011;5754;43.726;7.416;2024-03-06T07:42:12;109.63;;;105.13;;
11396;SDS011;5754;43.726;7.416;2024-03-06T07:44:50;110.20;;;105.53;;
11396;SDS011;5754;43.726;7.416;2024-03-06T07:47:25;110.33;;;105.77;;
11396;SDS011;5754;43.726;7.416;2024-03-06T07:50:04;111.20;;;106.50;;
11396;SDS011;5754;43.726;7.416;2024-03-06T07:52:41;111.20;;;106.40;;
11396;SDS011;5754;43.726;7.416;2024-03-06T07:55:17;110.43;;;105.93;;
11396;SDS011;5754;43.726;7.416;2024-03-06T07:57:54;108.43;;;103.63;;
11396;SDS011;5754;43.726;7.416;2024-03-06T08:00:29;111.50;;;106.90;;
11396;SDS011;5754;43.726;7.416;2024-03-06T08:03:07;109.00;;;104.33;;
11396;SDS011;5754;43.726;7.416;2024-03-06T08:05:43;108.00;;;103.53;;
11396;SDS011;5754;43.726;7.416;2024-03-06T08:08:17;110.90;;;106.30;;
11396;SDS011;5754;43.726;7.416;2024-03-06T08:10:53;110.77;;;106.13;;
11396;SDS011;5754;43.726;7.416;2024-03-06T08:13:29;109.17;;;104.67;;
11396;SDS011;5754;43.726;7.416;2024-03-06T08:16:04;112.33;;;107.57;;
11396;SDS011;5754;43.726;7.416;2024-03-06T08:18:39;111.27;;;106.57;;
11396;SDS011;5754;43.726;7.416;2024-03-06T08:21:13;110.00;;;105.37;;
11396;SDS011;5754;43.726;7.416;2024-03-06T08:23:57;110.03;;;105.53;;
11396;SDS011;5754;43.726;7.416;2024-03-06T08:26:34;110.50;;;106.00;;
11396;SDS011;5754;43.726;7.416;2024-03-06T08:29:09;111.80;;;107.20;;
11396;SDS011;5754;43.726;7.416;2024-03-06T08:31:43;108.93;;;104.47;;
11396;SDS011;5754;43.726;7.416;2024-03-06T08:34:21;110.20;;;105.70;;
11396;SDS011;5754;43.726;7.416;2024-03-06T08:36:58;113.30;;;108.60;;
11396;SDS011;5754;43.726;7.416;2024-03-06T08:39:33;115.75;;;111.05;;
11396;SDS011;5754;43.726;7.416;2024-03-06T08:42:13;116.47;;;111.72;;
11396;SDS011;5754;43.726;7.416;2024-03-06T08:44:52;116.70;;;111.90;;
11396;SDS011;5754;43.726;7.416;2024-03-06T08:47:26;115.18;;;110.12;;
11396;SDS011;5754;43.726;7.416;2024-03-06T08:50:02;117.82;;;112.93;;
11396;SDS011;5754;43.726;7.416;2024-03-06T08:52:40;118.62;;;113.88;;
11396;SDS011;5754;43.726;7.416;2024-03-06T08:55:15;115.25;;;110.45;;
11396;SDS011;5754;43.726;7.416;2024-03-06T08:57:49;113.10;;;107.65;;
11396;SDS011;5754;43.726;7.416;2024-03-06T09:00:25;117.22;;;111.03;;
11396;SDS011;5754;43.726;7.416;2024-03-06T09:03:05;113.72;;;108.72;;
11396;SDS011;5754;43.726;7.416;2024-03-06T09:05:42;116.20;;;111.50;;
11396;SDS011;5754;43.726;7.416;2024-03-06T09:08:18;116.12;;;111.32;;
11396;SDS011;5754;43.726;7.416;2024-03-06T09:10:53;115.50;;;110.80;;
11396;SDS011;5754;43.726;7.416;2024-03-06T09:13:29;120.40;;;115.37;;
11396;SDS011;5754;43.726;7.416;2024-03-06T09:16:04;117.40;;;112.60;;
11396;SDS011;5754;43.726;7.416;2024-03-06T09:18:39;118.37;;;113.37;;
11396;SDS011;5754;43.726;7.416;2024-03-06T09:21:15;120.28;;;115.28;;
11396;SDS011;5754;43.726;7.416;2024-03-06T09:23:50;123.35;;;118.28;;
11396;SDS011;5754;43.726;7.416;2024-03-06T09:26:25;122.00;;;117.10;;
11396;SDS011;5754;43.726;7.416;2024-03-06T09:29:01;124.32;;;119.22;;
11396;SDS011;5754;43.726;7.416;2024-03-06T09:31:37;125.40;;;120.10;;
11396;SDS011;5754;43.726;7.416;2024-03-06T09:34:12;122.07;;;117.07;;
11396;SDS011;5754;43.726;7.416;2024-03-06T09:36:48;121.30;;;116.40;;
11396;SDS011;5754;43.726;7.416;2024-03-06T09:39:24;119.47;;;114.57;;
11396;SDS011;5754;43.726;7.416;2024-03-06T09:41:59;120.97;;;115.97;;
11396;SDS011;5754;43.726;7.416;2024-03-06T09:44:40;117.13;;;112.22;;
11396;SDS011;5754;43.726;7.416;2024-03-06T09:47:17;117.20;;;112.30;;
11396;SDS011;5754;43.726;7.416;2024-03-06T09:49:59;117.55;;;112.75;;
11396;SDS011;5754;43.726;7.416;2024-03-06T09:52:40;117.57;;;112.68;;
11396;SDS011;5754;43.726;7.416;2024-03-06T09:55:17;115.30;;;110.57;;
11396;SDS011;5754;43.726;7.416;2024-03-06T09:57:53;113.93;;;109.18;;
11396;SDS011;5754;43.726;7.416;2024-03-06T10:00:27;112.35;;;107.65;;
11396;SDS011;5754;43.726;7.416;2024-03-06T10:03:02;111.62;;;106.82;;
11396;SDS011;5754;43.726;7.416;2024-03-06T10:05:39;110.15;;;105.65;;
11396;SDS011;5754;43.726;7.416;2024-03-06T10:08:14;110.97;;;106.47;;
11396;SDS011;5754;43.726;7.416;2024-03-06T10:10:51;111.60;;;106.83;;
11396;SDS011;5754;43.726;7.416;2024-03-06T10:13:25;111.88;;;107.05;;
11396;SDS011;5754;43.726;7.416;2024-03-06T10:16:01;109.18;;;104.35;;
11396;SDS011;5754;43.726;7.416;2024-03-06T10:18:37;109.77;;;105.17;;
11396;SDS011;5754;43.726;7.416;2024-03-06T10:21:13;111.37;;;106.67;;
11396;SDS011;5754;43.726;7.416;2024-03-06T10:23:50;111.87;;;107.07;;
11396;SDS011;5754;43.726;7.416;2024-03-06T10:26:31;110.70;;;106.17;;
11396;SDS011;5754;43.726;7.416;2024-03-06T10:29:05;112.07;;;107.30;;
11396;SDS011;5754;43.726;7.416;2024-03-06T10:31:41;111.30;;;106.40;;
11396;SDS011;5754;43.726;7.416;2024-03-06T10:34:17;110.20;;;105.50;;
11396;SDS011;5754;43.726;7.416;2024-03-06T10:36:54;110.70;;;106.10;;
11396;SDS011;5754;43.726;7.416;2024-03-06T10:39:30;109.57;;;105.03;;
11396;SDS011;5754;43.726;7.416;2024-03-06T10:42:12;110.90;;;106.20;;
11396;SDS011;5754;43.726;7.416;2024-03-06T10:44:53;109.43;;;104.93;;
11396;SDS011;5754;43.726;7.416;2024-03-06T10:47:30;111.27;;;106.67;;
11396;SDS011;5754;43.726;7.416;2024-03-06T10:50:06;110.70;;;106.00;;
11396;SDS011;5754;43.726;7.416;2024-03-06T10:52:44;109.67;;;105.07;;
11396;SDS011;5754;43.726;7.416;2024-03-06T10:55:20;109.80;;;105.27;;
11396;SDS011;5754;43.726;7.416;2024-03-06T10:57:56;114.00;;;109.30;;
11396;SDS011;5754;43.726;7.416;2024-03-06T11:00:34;108.53;;;103.93;;
11396;SDS011;5754;43.726;7.416;2024-03-06T11:03:09;110.77;;;106.13;;
11396;SDS011;5754;43.726;7.416;2024-03-06T11:05:48;110.43;;;105.67;;
11396;SDS011;5754;43.726;7.416;2024-03-06T11:08:24;109.20;;;104.63;;
11396;SDS011;5754;43.726;7.416;2024-03-06T11:11:18;109.70;;;104.70;;
11396;SDS011;5754;43.726;7.416;2024-03-06T11:14:01;108.20;;;103.80;;
11396;SDS011;5754;43.726;7.416;2024-03-06T11:16:55;108.80;;;104.03;;
11396;SDS011;5754;43.726;7.416;2024-03-06T11:28:19;111.77;;;107.27;;
11396;SDS011;5754;43.726;7.416;2024-03-06T11:31:04;111.23;;;106.57;;
11396;SDS011;5754;43.726;7.416;2024-03-06T11:33:41;109.33;;;104.87;;
11396;SDS011;5754;43.726;7.416;2024-03-06T11:36:25;112.60;;;107.80;;
11396;SDS011;5754;43.726;7.416;2024-03-06T11:39:04;110.27;;;105.60;;
11396;SDS011;5754;43.726;7.416;2024-03-06T11:41:48;109.20;;;104.70;;
11396;SDS011;5754;43.726;7.416;2024-03-06T11:44:23;109.67;;;105.07;;
11396;SDS011;5754;43.726;7.416;2024-03-06T11:47:02;109.13;;;104.63;;
11396;SDS011;5754;43.726;7.416;2024-03-06T11:49:38;113.33;;;108.30;;
11396;SDS011;5754;43.726;7.416;2024-03-06T11:52:14;112.37;;;107.73;;
11396;SDS011;5754;43.726;7.416;2024-03-06T11:54:51;110.47;;;105.90;;
11396;SDS011;5754;43.726;7.416;2024-03-06T11:57:26;112.53;;;107.90;;
11396;SDS011;5754;43.726;7.416;2024-03-06T12:02:43;109.97;;;105.47;;
11396;SDS011;5754;43.726;7.416;2024-03-06T12:05:17;109.03;;;104.53;;
11396;SDS011;5754;43.726;7.416;2024-03-06T12:07:52;111.20;;;106.70;;
11396;SDS011;5754;43.726;7.416;2024-03-06T12:10:29;110.70;;;106.20;;
11396;SDS011;5754;43.726;7.416;2024-03-06T12:13:04;108.53;;;104.00;;
11396;SDS011;5754;43.726;7.416;2024-03-06T12:15:42;110.73;;;106.00;;
11396;SDS011;5754;43.726;7.416;2024-03-06T12:18:17;111.80;;;107.20;;
11396;SDS011;5754;43.726;7.416;2024-03-06T12:20:54;109.73;;;105.20;;
11396;SDS011;5754;43.726;7.416;2024-03-06T12:23:28;112.03;;;107.13;;
11396;SDS011;5754;43.726;7.416;2024-03-06T12:26:07;110.47;;;105.97;;
11396;SDS011;5754;43.726;7.416;2024-03-06T12:28:43;109.60;;;105.00;;
11396;SDS011;5754;43.726;7.416;2024-03-06T12:31:17;108.10;;;103.53;;
11396;SDS011;5754;43.726;7.416;2024-03-06T12:33:57;108.77;;;104.17;;
11396;SDS011;5754;43.726;7.416;2024-03-06T12:36:33;108.30;;;103.80;;
11396;SDS011;5754;43.726;7.416;2024-03-06T12:39:10;108.17;;;103.77;;
11396;SDS011;5754;43.726;7.416;2024-03-06T12:41:46;111.63;;;106.93;;
11396;SDS011;5754;43.726;7.416;2024-03-06T12:44:22;110.00;;;105.43;;
11396;SDS011;5754;43.726;7.416;2024-03-06T12:46:57;111.30;;;106.60;;
11396;SDS011;5754;43.726;7.416;2024-03-06T12:49:31;110.33;;;105.80;;
11396;SDS011;5754;43.726;7.416;2024-03-06T12:52:09;106.93;;;102.23;;
11396;SDS011;5754;43.726;7.416;2024-03-06T12:54:43;105.60;;;101.10;;
11396;SDS011;5754;43.726;7.416;2024-03-06T12:57:18;106.53;;;102.10;;
11396;SDS011;5754;43.726;7.416;2024-03-06T12:59:53;106.53;;;102.20;;
11396;SDS011;5754;43.726;7.416;2024-03-06T13:02:28;110.00;;;105.30;;
11396;SDS011;5754;43.726;7.416;2024-03-06T13:05:03;106.40;;;101.80;;
11396;SDS011;5754;43.726;7.416;2024-03-06T13:07:38;107.27;;;102.77;;
11396;SDS011;5754;43.726;7.416;2024-03-06T13:10:16;106.73;;;102.33;;
11396;SDS011;5754;43.726;7.416;2024-03-06T13:12:51;106.10;;;101.43;;
11396;SDS011;5754;43.726;7.416;2024-03-06T13:15:25;107.17;;;102.57;;
11396;SDS011;5754;43.726;7.416;2024-03-06T13:18:01;106.73;;;102.23;;
11396;SDS011;5754;43.726;7.416;2024-03-06T13:20:39;111.87;;;107.07;;
11396;SDS011;5754;43.726;7.416;2024-03-06T13:23:13;108.83;;;104.23;;
11396;SDS011;5754;43.726;7.416;2024-03-06T13:25:48;108.43;;;103.83;;
11396;SDS011;5754;43.726;7.416;2024-03-06T13:28:25;108.80;;;104.10;;
11396;SDS011;5754;43.726;7.416;2024-03-06T13:31:03;108.47;;;103.77;;
11396;SDS011;5754;43.726;7.416;2024-03-06T13:33:40;105.77;;;101.37;;
11396;SDS011;5754;43.726;7.416;2024-03-06T13:36:14;107.83;;;103.13;;
11396;SDS011;5754;43.726;7.416;2024-03-06T13:38:49;109.17;;;104.37;;
11396;SDS011;5754;43.726;7.416;2024-03-06T13:41:25;112.50;;;107.73;;
11396;SDS011;5754;43.726;7.416;2024-03-06T13:44:01;110.83;;;106.20;;
11396;SDS011;5754;43.726;7.416;2024-03-06T13:46:35;107.70;;;103.30;;
11396;SDS011;5754;43.726;7.416;2024-03-06T13:49:33;107.33;;;102.83;;
11396;SDS011;5754;43.726;7.416;2024-03-06T13:52:09;105.40;;;101.00;;
11396;SDS011;5754;43.726;7.416;2024-03-06T13:54:44;108.33;;;103.73;;
11396;SDS011;5754;43.726;7.416;2024-03-06T13:57:21;110.07;;;105.47;;
11396;SDS011;5754;43.726;7.416;2024-03-06T13:59:56;112.30;;;107.70;;
11396;SDS011;5754;43.726;7.416;2024-03-06T14:02:31;111.53;;;106.73;;
11396;SDS011;5754;43.726;7.416;2024-03-06T14:05:08;109.67;;;105.03;;
11396;SDS011;5754;43.726;7.416;2024-03-06T14:07:44;108.80;;;104.30;;
11396;SDS011;5754;43.726;7.416;2024-03-06T14:10:18;111.30;;;106.33;;
11396;SDS011;5754;43.726;7.416;2024-03-06T14:12:54;110.37;;;105.60;;
11396;SDS011;5754;43.726;7.416;2024-03-06T14:15:32;108.37;;;103.87;;
11396;SDS011;5754;43.726;7.416;2024-03-06T14:18:08;105.67;;;101.17;;
11396;SDS011;5754;43.726;7.416;2024-03-06T14:20:42;109.47;;;104.73;;
11396;SDS011;5754;43.726;7.416;2024-03-06T14:23:18;107.77;;;103.27;;
11396;SDS011;5754;43.726;7.416;2024-03-06T14:25:54;108.63;;;104.00;;
11396;SDS011;5754;43.726;7.416;2024-03-06T14:28:29;107.47;;;102.77;;
11396;SDS011;5754;43.726;7.416;2024-03-06T14:31:05;109.13;;;104.20;;
11396;SDS011;5754;43.726;7.416;2024-03-06T14:33:40;109.37;;;104.67;;
11396;SDS011;5754;43.726;7.416;2024-03-06T14:36:14;107.43;;;102.60;;
11396;SDS011;5754;43.726;7.416;2024-03-06T14:38:50;111.43;;;106.70;;
11396;SDS011;5754;43.726;7.416;2024-03-06T14:41:28;108.60;;;103.90;;
11396;SDS011;5754;43.726;7.416;2024-03-06T14:44:03;107.63;;;103.20;;
11396;SDS011;5754;43.726;7.416;2024-03-06T14:46:38;106.73;;;102.23;;
11396;SDS011;5754;43.726;7.416;2024-03-06T14:49:18;108.10;;;103.43;;
11396;SDS011;5754;43.726;7.416;2024-03-06T14:51:53;105.50;;;100.90;;
11396;SDS011;5754;43.726;7.416;2024-03-06T14:54:29;106.47;;;102.07;;
11396;SDS011;5754;43.726;7.416;2024-03-06T14:57:04;105.53;;;101.03;;
11396;SDS011;5754;43.726;7.416;2024-03-06T14:59:40;104.37;;;99.83;;
11396;SDS011;5754;43.726;7.416;2024-03-06T15:02:14;106.27;;;101.70;;
11396;SDS011;5754;43.726;7.416;2024-03-06T15:04:49;108.63;;;103.97;;
11396;SDS011;5754;43.726;7.416;2024-03-06T15:07:26;111.40;;;106.50;;
11396;SDS011;5754;43.726;7.416;2024-03-06T15:10:01;111.47;;;106.77;;
11396;SDS011;5754;43.726;7.416;2024-03-06T15:12:37;107.27;;;102.87;;
11396;SDS011;5754;43.726;7.416;2024-03-06T15:15:13;108.73;;;104.03;;
11396;SDS011;5754;43.726;7.416;2024-03-06T15:17:47;111.17;;;106.47;;
11396;SDS011;5754;43.726;7.416;2024-03-06T15:20:22;107.23;;;102.73;;